Time;durP1;ratioP1;P1;durP2;ratioP2;P2;SDS_P1;SDS_P2;PMS_P1;PMS_P2;Temp;Humidity;BMP_temperature;BMP_pressure;BME280_temperature;BME280_humidity;BME280_pressure;Samples;Min_cycle;Max_cycle;Signal;HPM_P1;HPM_P2
2022/08/03 00:01:20;;;;;;;0.10;0.10;;;19.20;99.90;;;;;;5016777;28;20303;-90
2022/08/03 00:03:46;;;;;;;0.10;0.10;;;19.30;99.90;;;;;;5026624;28;20737;-90
2022/08/03 00:06:12;;;;;;;0.10;0.10;;;19.30;99.90;;;;;;5026640;28;20197;-90
2022/08/03 00:08:37;;;;;;;0.10;0.10;;;19.30;99.90;;;;;;5014080;28;20629;-91
2022/08/03 00:11:03;;;;;;;0.10;0.10;;;19.30;99.90;;;;;;5013960;28;20780;-90
2022/08/03 00:13:28;;;;;;;0.10;0.10;;;19.30;99.90;;;;;;5007550;28;20275;-90
2022/08/03 00:15:54;;;;;;;0.10;0.10;;;19.30;99.90;;;;;;5013306;28;20212;-91
2022/08/03 00:18:19;;;;;;;0.10;0.10;;;19.30;99.90;;;;;;5017215;28;20279;-90
2022/08/03 00:20:45;;;;;;;0.10;0.10;;;19.30;99.90;;;;;;5029786;28;20210;-90
2022/08/03 00:23:10;;;;;;;0.10;0.10;;;19.30;99.90;;;;;;5013861;28;20266;-90
2022/08/03 00:25:36;;;;;;;0.10;0.10;;;19.30;99.90;;;;;;5025577;28;20230;-89
2022/08/03 00:28:04;;;;;;;0.10;0.10;;;19.30;99.90;;;;;;5021634;28;20192;-91
2022/08/03 00:30:29;;;;;;;0.10;0.10;;;19.30;99.90;;;;;;5016708;28;20446;-92
2022/08/03 00:32:55;;;;;;;0.10;0.10;;;19.30;99.90;;;;;;5025694;28;20521;-91
2022/08/03 00:35:21;;;;;;;0.10;0.10;;;19.20;99.90;;;;;;5028823;28;20187;-91
2022/08/03 00:37:47;;;;;;;0.10;0.10;;;19.20;99.90;;;;;;5018044;28;20462;-90
2022/08/03 00:40:14;;;;;;;0.10;0.10;;;19.20;99.90;;;;;;5020038;28;20193;-90
2022/08/03 00:42:52;;;;;;;0.10;0.10;;;19.20;99.90;;;;;;5023566;28;20237;-91
2022/08/03 00:45:22;;;;;;;0.10;0.10;;;19.10;99.90;;;;;;5028804;28;20863;-89
2022/08/03 00:47:48;;;;;;;0.10;0.10;;;19.10;99.90;;;;;;5015036;28;20958;-91
2022/08/03 00:50:14;;;;;;;0.10;0.10;;;19.10;99.90;;;;;;5031803;28;20477;-91
2022/08/03 00:52:40;;;;;;;0.10;0.10;;;19.10;99.90;;;;;;5015752;28;20192;-90
2022/08/03 00:55:05;;;;;;;0.10;0.10;;;19.10;99.90;;;;;;5014765;28;20455;-89
2022/08/03 00:57:32;;;;;;;0.10;0.10;;;19.00;99.90;;;;;;5015601;28;20513;-90
2022/08/03 00:59:58;;;;;;;0.10;0.10;;;19.00;99.90;;;;;;5016782;28;20196;-90
2022/08/03 01:02:25;;;;;;;0.10;0.10;;;19.00;99.90;;;;;;5023999;28;20456;-92
2022/08/03 01:04:51;;;;;;;0.10;0.10;;;19.00;99.90;;;;;;5024776;28;20500;-91
2022/08/03 01:07:38;;;;;;;0.10;0.10;;;19.00;99.90;;;;;;5015859;28;20982;-91
2022/08/03 01:10:57;;;;;;;0.10;0.10;;;19.00;99.90;;;;;;5017037;28;20189;-91
2022/08/03 01:13:56;;;;;;;0.10;0.10;;;19.00;99.90;;;;;;4933303;29;20470;-92
2022/08/03 01:16:51;;;;;;;0.10;0.10;;;18.90;99.90;;;;;;4861841;29;20495;-90
2022/08/03 01:19:19;;;;;;;0.10;0.10;;;18.80;99.90;;;;;;4982546;28;20925;-91
2022/08/03 01:22:16;;;;;;;0.10;0.10;;;18.60;99.90;;;;;;5011068;28;20508;-91
2022/08/03 01:25:11;;;;;;;0.10;0.10;;;18.70;99.90;;;;;;5013958;28;20522;-91
2022/08/03 01:28:08;;;;;;;0.10;0.10;;;18.70;99.90;;;;;;5015416;28;20458;-91
2022/08/03 01:30:36;;;;;;;0.10;0.10;;;18.70;99.90;;;;;;5012332;28;20577;-91
2022/08/03 01:33:17;;;;;;;0.10;0.10;;;18.70;99.90;;;;;;5027529;28;21072;-90
2022/08/03 01:35:49;;;;;;;0.10;0.10;;;18.70;99.90;;;;;;5025259;28;20461;-91
2022/08/03 01:38:21;;;;;;;0.10;0.10;;;18.70;99.90;;;;;;5030868;28;20456;-92
2022/08/03 01:40:47;;;;;;;0.10;0.10;;;18.70;99.90;;;;;;5028017;28;20739;-92
2022/08/03 01:43:16;;;;;;;0.10;0.10;;;18.70;99.90;;;;;;5013586;28;20447;-91
2022/08/03 01:45:43;;;;;;;0.10;0.10;;;18.60;99.90;;;;;;5017829;28;20518;-91
2022/08/03 01:48:11;;;;;;;0.10;0.10;;;18.60;99.90;;;;;;5023556;28;20788;-92
2022/08/03 01:50:37;;;;;;;0.10;0.10;;;18.60;99.90;;;;;;5025445;28;20467;-90
2022/08/03 01:53:04;;;;;;;0.10;0.10;;;18.60;99.90;;;;;;5021949;28;20520;-91
2022/08/03 01:55:32;;;;;;;0.10;0.10;;;18.60;99.90;;;;;;5025005;28;20210;-90
2022/08/03 01:58:01;;;;;;;0.10;0.10;;;18.50;99.90;;;;;;5026656;28;20533;-92
2022/08/03 02:00:28;;;;;;;0.10;0.10;;;18.50;99.90;;;;;;5027493;28;20987;-89
2022/08/03 02:02:54;;;;;;;0.10;0.10;;;18.40;99.90;;;;;;5024127;28;20461;-91
2022/08/03 02:05:20;;;;;;;0.10;0.10;;;18.40;99.90;;;;;;5025003;28;20508;-92
2022/08/03 02:07:48;;;;;;;0.10;0.10;;;18.50;99.90;;;;;;5014402;28;20562;-91
2022/08/03 02:10:17;;;;;;;0.10;0.10;;;18.50;99.90;;;;;;5019305;28;20199;-91
2022/08/03 02:12:44;;;;;;;0.10;0.10;;;18.40;99.90;;;;;;5027163;28;20448;-92
2022/08/03 02:15:11;;;;;;;0.10;0.10;;;18.50;99.90;;;;;;5025577;28;20459;-92
2022/08/03 02:17:38;;;;;;;0.10;0.10;;;18.50;99.90;;;;;;5025092;28;20449;-92
2022/08/03 02:20:05;;;;;;;0.10;0.10;;;18.30;99.90;;;;;;5026282;28;21441;-92
2022/08/03 02:22:32;;;;;;;0.10;0.10;;;18.30;99.90;;;;;;5033081;28;20455;-91
2022/08/03 02:24:58;;;;;;;0.10;0.10;;;18.30;99.90;;;;;;5015075;28;20493;-92
2022/08/03 02:27:26;;;;;;;0.10;0.10;;;18.40;99.90;;;;;;5021235;28;20431;-93
2022/08/03 02:30:00;;;;;;;0.10;0.10;;;18.40;99.90;;;;;;5030476;28;20195;-92
2022/08/03 02:32:34;;;;;;;0.10;0.10;;;18.40;99.90;;;;;;5012037;28;20441;-91
2022/08/03 02:35:02;;;;;;;0.10;0.10;;;18.40;99.90;;;;;;5015299;28;20445;-91
2022/08/03 02:37:31;;;;;;;0.10;0.10;;;18.30;99.90;;;;;;5027004;28;20486;-92
2022/08/03 02:40:01;;;;;;;0.10;0.10;;;18.30;99.90;;;;;;5017212;28;20434;-92
2022/08/03 02:42:29;;;;;;;0.10;0.10;;;18.10;99.90;;;;;;5026045;28;20445;-93
2022/08/03 02:44:57;;;;;;;0.10;0.10;;;18.20;99.90;;;;;;5009537;28;20953;-92
2022/08/03 02:47:26;;;;;;;0.10;0.10;;;18.20;99.90;;;;;;5016656;28;20427;-92
2022/08/03 02:49:54;;;;;;;0.10;0.10;;;18.10;99.90;;;;;;4997619;28;20436;-91
2022/08/03 02:52:23;;;;;;;0.10;0.10;;;18.20;99.90;;;;;;5005224;28;20839;-92
2022/08/03 02:54:52;;;;;;;0.10;0.10;;;18.20;99.90;;;;;;5016297;28;20454;-93
2022/08/03 02:57:19;;;;;;;0.10;0.10;;;18.20;99.90;;;;;;5014952;28;20558;-88
2022/08/03 02:59:45;;;;;;;0.10;0.10;;;18.30;99.90;;;;;;5013578;28;20438;-91
2022/08/03 03:02:13;;;;;;;0.10;0.10;;;18.20;99.90;;;;;;5020348;28;20549;-92
2022/08/03 03:04:39;;;;;;;0.10;0.10;;;18.20;99.90;;;;;;5015890;28;20446;-92
2022/08/03 03:07:05;;;;;;;0.10;0.10;;;18.20;99.90;;;;;;5026081;28;20609;-91
2022/08/03 03:09:33;;;;;;;0.10;0.10;;;18.20;99.90;;;;;;5012195;28;20544;-91
2022/08/03 03:11:59;;;;;;;0.10;0.10;;;18.20;99.90;;;;;;5025697;28;20185;-91
2022/08/03 03:14:25;;;;;;;0.10;0.10;;;18.20;99.90;;;;;;5019338;28;20446;-92
2022/08/03 03:16:51;;;;;;;0.10;0.10;;;18.10;99.90;;;;;;5029590;28;20493;-91
2022/08/03 03:19:18;;;;;;;0.10;0.10;;;18.20;99.90;;;;;;5004965;28;20438;-92
2022/08/03 03:21:45;;;;;;;0.10;0.10;;;18.10;99.90;;;;;;5027628;28;20443;-92
2022/08/03 03:24:11;;;;;;;0.10;0.10;;;18.10;99.90;;;;;;5017349;28;20451;-92
2022/08/03 03:26:37;;;;;;;0.10;0.10;;;18.10;99.90;;;;;;5020234;28;20836;-90
2022/08/03 03:29:03;;;;;;;0.10;0.10;;;18.10;99.90;;;;;;5022655;28;20435;-92
2022/08/03 03:31:29;;;;;;;0.10;0.10;;;18.20;99.90;;;;;;5017963;28;20491;-91
2022/08/03 03:33:58;;;;;;;0.10;0.10;;;18.20;99.90;;;;;;5029237;28;20198;-91
2022/08/03 03:36:24;;;;;;;0.10;0.10;;;18.20;99.90;;;;;;5027632;28;20701;-91
2022/08/03 03:38:50;;;;;;;0.10;0.10;;;18.30;99.90;;;;;;5019636;28;20444;-91
2022/08/03 03:41:15;;;;;;;0.10;0.10;;;18.30;99.90;;;;;;5020517;28;20191;-91
2022/08/03 03:43:41;;;;;;;0.10;0.10;;;18.30;99.90;;;;;;5015783;28;20942;-90
2022/08/03 03:46:07;;;;;;;0.10;0.10;;;18.20;99.90;;;;;;5032504;28;20311;-89
2022/08/03 03:48:33;;;;;;;0.10;0.10;;;18.30;99.90;;;;;;5029682;28;21025;-89
2022/08/03 03:50:59;;;;;;;0.10;0.10;;;18.20;99.90;;;;;;5029136;28;20226;-88
2022/08/03 03:53:24;;;;;;;0.10;0.10;;;18.30;99.90;;;;;;5016331;28;20259;-90
2022/08/03 03:55:52;;;;;;;0.10;0.10;;;18.30;99.90;;;;;;5019031;28;21024;-90
2022/08/03 03:58:19;;;;;;;0.10;0.10;;;18.30;99.90;;;;;;5023239;28;20640;-90
2022/08/03 04:00:45;;;;;;;0.10;0.10;;;18.30;99.90;;;;;;5000121;28;20457;-92
2022/08/03 04:03:11;;;;;;;0.10;0.10;;;18.30;99.90;;;;;;5029062;28;20450;-89
2022/08/03 04:11:15;;;;;;;0.10;0.10;;;18.30;99.90;;;;;;5026808;28;20496;-90
2022/08/03 04:13:57;;;;;;;0.10;0.10;;;18.30;99.90;;;;;;5004977;28;20497;-91
2022/08/03 04:16:27;;;;;;;0.10;0.10;;;18.40;99.90;;;;;;5021618;28;20981;-90
2022/08/03 04:19:10;;;;;;;0.10;0.10;;;18.40;99.90;;;;;;5030204;28;20430;-90
2022/08/03 04:21:40;;;;;;;0.10;0.10;;;18.40;99.90;;;;;;5010296;28;20585;-91
2022/08/03 04:24:08;;;;;;;0.10;0.10;;;18.40;99.90;;;;;;5017497;28;20443;-91
2022/08/03 04:26:38;;;;;;;0.10;0.10;;;18.40;99.90;;;;;;5017293;28;20465;-88
2022/08/03 04:29:05;;;;;;;0.10;0.10;;;18.50;99.90;;;;;;5020859;28;20517;-91
2022/08/03 04:31:32;;;;;;;0.10;0.10;;;18.50;99.90;;;;;;5030003;28;20469;-91
2022/08/03 04:33:58;;;;;;;0.10;0.10;;;18.60;99.90;;;;;;5025740;28;20831;-90
2022/08/03 04:36:26;;;;;;;0.10;0.10;;;18.70;99.90;;;;;;5027905;28;20989;-90
2022/08/03 04:39:01;;;;;;;0.10;0.10;;;18.70;99.90;;;;;;5022582;28;20473;-91
2022/08/03 04:41:27;;;;;;;0.10;0.10;;;18.70;99.90;;;;;;5024061;28;20478;-90
2022/08/03 04:43:56;;;;;;;0.10;0.10;;;18.80;99.90;;;;;;5004697;28;20984;-91
2022/08/03 04:46:24;;;;;;;0.10;0.10;;;18.90;99.90;;;;;;5034960;28;20579;-91
2022/08/03 04:48:50;;;;;;;0.10;0.10;;;18.90;99.90;;;;;;5034009;28;20891;-91
2022/08/03 04:51:16;;;;;;;0.10;0.10;;;19.00;99.90;;;;;;5019954;28;20453;-92
2022/08/03 04:53:42;;;;;;;0.10;0.10;;;19.10;99.90;;;;;;5033619;28;20172;-92
2022/08/03 04:56:08;;;;;;;0.10;0.10;;;19.10;99.90;;;;;;5007459;28;20545;-90
2022/08/03 04:58:34;;;;;;;0.10;0.10;;;19.10;99.90;;;;;;5019238;28;20856;-89
2022/08/03 05:00:59;;;;;;;0.10;0.10;;;19.20;99.90;;;;;;5021608;28;20552;-92
2022/08/03 05:03:25;;;;;;;0.10;0.10;;;19.30;99.90;;;;;;5010132;28;20198;-92
2022/08/03 05:05:51;;;;;;;0.10;0.10;;;19.30;99.90;;;;;;5024589;28;20183;-92
2022/08/03 05:08:17;;;;;;;0.10;0.10;;;19.30;99.90;;;;;;4990674;28;20282;-90
2022/08/03 05:10:42;;;;;;;0.10;0.10;;;19.40;99.90;;;;;;4994718;28;20451;-92
2022/08/03 05:13:12;;;;;;;0.10;0.10;;;19.40;99.90;;;;;;5008205;28;20196;-91
2022/08/03 05:15:38;;;;;;;0.10;0.10;;;19.40;99.90;;;;;;5008207;28;20209;-91
2022/08/03 05:18:04;;;;;;;0.10;0.10;;;19.40;99.90;;;;;;5004781;28;20566;-90
2022/08/03 05:20:30;;;;;;;0.10;0.10;;;19.30;99.90;;;;;;5006796;28;20507;-90
2022/08/03 05:22:56;;;;;;;0.10;0.10;;;19.30;99.90;;;;;;5013158;28;20184;-89
2022/08/03 05:25:21;;;;;;;0.10;0.10;;;19.30;99.90;;;;;;5003187;28;20191;-90
2022/08/03 05:27:47;;;;;;;0.10;0.10;;;19.30;99.90;;;;;;5019887;28;20443;-90
2022/08/03 05:30:13;;;;;;;0.10;0.10;;;19.30;99.90;;;;;;4977539;28;20192;-90
2022/08/03 05:32:39;;;;;;;0.10;0.10;;;19.40;99.90;;;;;;5003618;28;20188;-91
2022/08/03 05:35:05;;;;;;;0.10;0.00;;;19.50;99.90;;;;;;4982711;28;20538;-91
2022/08/03 05:37:30;;;;;;;0.10;0.10;;;19.60;99.90;;;;;;4994341;28;20250;-91
2022/08/03 05:39:56;;;;;;;0.10;0.00;;;19.70;99.90;;;;;;4996613;28;20458;-89
2022/08/03 05:42:21;;;;;;;0.10;0.10;;;19.80;99.90;;;;;;4993884;28;20328;-90
2022/08/03 05:44:47;;;;;;;0.10;0.10;;;19.90;99.90;;;;;;4991284;28;20192;-90
2022/08/03 05:47:12;;;;;;;0.10;0.10;;;19.90;99.90;;;;;;5002386;28;20212;-92
2022/08/03 05:49:38;;;;;;;0.10;0.10;;;20.00;99.90;;;;;;4993990;28;20198;-91
2022/08/03 05:52:03;;;;;;;0.10;0.10;;;20.10;99.90;;;;;;5001997;28;20189;-89
2022/08/03 05:54:29;;;;;;;0.10;0.10;;;20.10;99.90;;;;;;4993210;28;20185;-90
2022/08/03 05:56:54;;;;;;;0.10;0.10;;;20.20;99.90;;;;;;4998303;28;20331;-89
2022/08/03 05:59:20;;;;;;;0.10;0.00;;;20.30;99.90;;;;;;4992635;28;20195;-89
2022/08/03 06:01:46;;;;;;;0.10;0.10;;;20.40;99.90;;;;;;4989052;28;20279;-91
2022/08/03 06:04:12;;;;;;;0.10;0.00;;;20.50;99.90;;;;;;5016161;28;20195;-91
2022/08/03 06:06:37;;;;;;;0.10;0.10;;;20.60;99.90;;;;;;5006314;28;20455;-89
2022/08/03 06:09:03;;;;;;;0.10;0.10;;;20.60;99.90;;;;;;5004555;28;20197;-90
2022/08/03 06:11:29;;;;;;;0.10;0.10;;;20.70;99.90;;;;;;5004754;28;20217;-90
2022/08/03 06:13:54;;;;;;;0.10;0.10;;;20.80;99.90;;;;;;4993844;28;20298;-89
2022/08/03 06:16:20;;;;;;;0.10;0.10;;;20.90;99.90;;;;;;5003691;28;20223;-90
2022/08/03 06:18:46;;;;;;;0.10;0.10;;;21.00;99.90;;;;;;5007345;28;20211;-89
2022/08/03 06:21:11;;;;;;;0.10;0.10;;;21.10;99.90;;;;;;5000610;28;20677;-89
2022/08/03 06:23:37;;;;;;;0.10;0.00;;;21.20;99.90;;;;;;4989736;28;20439;-89
2022/08/03 06:26:03;;;;;;;0.10;0.00;;;21.30;99.90;;;;;;5008660;28;20281;-90
2022/08/03 06:28:29;;;;;;;0.10;0.00;;;21.40;99.90;;;;;;4986974;28;20541;-89
2022/08/03 06:30:54;;;;;;;0.10;0.00;;;21.50;99.90;;;;;;4993869;28;20463;-90
2022/08/03 06:33:20;;;;;;;0.10;0.00;;;21.70;99.90;;;;;;4994424;28;20309;-89
2022/08/03 06:35:45;;;;;;;0.10;0.00;;;21.80;99.90;;;;;;4992710;28;20668;-90
2022/08/03 06:38:11;;;;;;;0.10;0.10;;;21.90;99.90;;;;;;4991121;28;20284;-90
2022/08/03 06:40:40;;;;;;;0.10;0.00;;;22.00;99.90;;;;;;4974453;28;20185;-89
2022/08/03 06:43:06;;;;;;;0.10;0.00;;;22.00;99.90;;;;;;4995361;28;20438;-89
2022/08/03 06:45:32;;;;;;;0.10;0.00;;;22.10;99.90;;;;;;4982633;28;20445;-89
2022/08/03 06:48:05;;;;;;;0.10;0.00;;;22.20;99.90;;;;;;4996295;28;20803;-90
2022/08/03 06:50:32;;;;;;;0.10;0.10;;;22.30;99.90;;;;;;5003749;28;20727;-89
2022/08/03 06:52:58;;;;;;;0.10;0.00;;;22.40;99.90;;;;;;4995814;28;20443;-91
2022/08/03 06:55:24;;;;;;;0.10;0.00;;;22.50;99.90;;;;;;5010065;28;20451;-91
2022/08/03 06:57:49;;;;;;;0.10;0.00;;;22.60;99.90;;;;;;4991242;28;20456;-90
2022/08/03 07:00:15;;;;;;;0.10;0.00;;;22.70;99.90;;;;;;5002408;28;20208;-82
2022/08/03 07:02:41;;;;;;;0.10;0.00;;;22.70;99.90;;;;;;5004630;28;20199;-84
2022/08/03 07:05:08;;;;;;;0.10;0.00;;;22.80;99.90;;;;;;4984496;28;20452;-84
2022/08/03 07:07:33;;;;;;;0.10;0.00;;;22.90;99.90;;;;;;4999626;28;20283;-82
2022/08/03 07:09:59;;;;;;;0.10;0.00;;;23.00;99.90;;;;;;5004480;28;20446;-88
2022/08/03 07:12:29;;;;;;;0.10;0.00;;;23.10;99.90;;;;;;5019901;28;20613;-82
2022/08/03 07:14:55;;;;;;;0.10;0.00;;;23.20;99.90;;;;;;4997587;28;20661;-84
2022/08/03 07:17:22;;;;;;;0.10;0.00;;;23.20;99.90;;;;;;5002532;28;20854;-85
2022/08/03 07:19:47;;;;;;;0.10;0.00;;;23.30;99.90;;;;;;4995366;28;20443;-86
2022/08/03 07:22:13;;;;;;;0.10;0.10;;;23.40;99.90;;;;;;5015552;28;20449;-84
2022/08/03 07:24:40;;;;;;;0.10;0.00;;;23.50;99.90;;;;;;5000452;28;20660;-87
2022/08/03 07:27:06;;;;;;;0.10;0.00;;;23.60;99.90;;;;;;5031726;28;20187;-79
2022/08/03 07:29:33;;;;;;;0.10;0.00;;;23.60;99.90;;;;;;5018377;28;20961;-79
2022/08/03 07:31:59;;;;;;;0.10;0.00;;;23.70;99.90;;;;;;5006446;28;20200;-84
2022/08/03 07:34:24;;;;;;;0.10;0.00;;;23.80;99.90;;;;;;5000525;28;21128;-87
2022/08/03 07:36:50;;;;;;;0.10;0.00;;;23.90;99.90;;;;;;5000958;28;20221;-81
2022/08/03 07:39:15;;;;;;;0.10;0.00;;;24.00;99.90;;;;;;4975103;28;20854;-82
2022/08/03 07:41:41;;;;;;;0.10;0.00;;;24.10;99.90;;;;;;5008116;28;20220;-83
2022/08/03 07:44:07;;;;;;;0.10;0.00;;;24.10;99.90;;;;;;5002775;28;20208;-83
2022/08/03 07:46:32;;;;;;;0.10;0.00;;;24.20;99.90;;;;;;4998185;28;20234;-84
2022/08/03 07:48:58;;;;;;;0.10;0.00;;;24.30;99.90;;;;;;4999841;28;20189;-84
2022/08/03 07:51:23;;;;;;;0.10;0.00;;;24.40;99.90;;;;;;5007397;28;20705;-84
2022/08/03 07:53:49;;;;;;;0.10;0.00;;;24.50;99.90;;;;;;5013293;28;20803;-86
2022/08/03 07:56:15;;;;;;;0.10;0.00;;;24.50;99.90;;;;;;4996963;28;20307;-83
2022/08/03 07:58:41;;;;;;;0.10;0.00;;;24.40;99.90;;;;;;4999473;28;20642;-90
2022/08/03 08:01:06;;;;;;;0.10;0.00;;;24.60;99.90;;;;;;4995198;28;20467;-88
2022/08/03 08:03:32;;;;;;;0.10;0.00;;;24.70;99.90;;;;;;4995498;28;20199;-92
2022/08/03 08:05:57;;;;;;;0.10;0.00;;;24.70;99.90;;;;;;4992830;28;20188;-88
2022/08/03 08:08:26;;;;;;;0.10;0.07;;;24.80;99.90;;;;;;5010744;28;20223;-93
2022/08/03 08:10:52;;;;;;;0.10;0.00;;;24.80;99.90;;;;;;5023251;28;20195;-93
2022/08/03 08:13:17;;;;;;;0.10;0.00;;;25.00;99.90;;;;;;5017441;28;20447;-95
2022/08/03 08:15:43;;;;;;;0.10;0.00;;;25.10;99.90;;;;;;5036795;28;20203;-92
2022/08/03 08:18:08;;;;;;;0.10;0.00;;;25.10;99.90;;;;;;5019916;28;20651;-90
2022/08/03 08:20:38;;;;;;;0.10;0.00;;;25.20;99.90;;;;;;5014422;28;20267;-93
2022/08/03 08:23:06;;;;;;;0.10;0.00;;;25.30;99.90;;;;;;5000346;28;20562;-91
2022/08/03 08:25:33;;;;;;;0.10;0.00;;;25.40;99.90;;;;;;5023502;28;20477;-91
2022/08/03 08:28:03;;;;;;;0.10;0.00;;;25.60;99.90;;;;;;5023518;28;20458;-89
2022/08/03 08:30:29;;;;;;;0.10;0.10;;;25.70;99.90;;;;;;5023919;28;20942;-88
2022/08/03 08:32:54;;;;;;;0.10;0.00;;;25.70;99.90;;;;;;5020052;28;20442;-87
2022/08/03 08:35:20;;;;;;;0.10;0.00;;;25.70;99.90;;;;;;5003567;28;20537;-87
2022/08/03 08:37:46;;;;;;;0.10;0.00;;;25.90;99.90;;;;;;5018857;28;20228;-88
2022/08/03 08:40:12;;;;;;;0.10;0.00;;;26.20;99.90;;;;;;5004341;28;20203;-87
2022/08/03 08:42:39;;;;;;;0.10;0.00;;;26.20;99.90;;;;;;5016311;28;20188;-87
2022/08/03 08:45:07;;;;;;;0.10;0.00;;;26.20;99.90;;;;;;5031521;28;21328;-87
2022/08/03 08:47:35;;;;;;;0.10;0.00;;;26.20;99.90;;;;;;5009283;28;20455;-89
2022/08/03 08:50:02;;;;;;;0.10;0.00;;;26.40;99.90;;;;;;5031548;28;20446;-86
2022/08/03 08:52:29;;;;;;;0.10;0.00;;;26.40;99.90;;;;;;5031761;28;20426;-89
2022/08/03 08:54:58;;;;;;;0.10;0.00;;;26.50;99.90;;;;;;5006724;28;20974;-87
2022/08/03 08:57:32;;;;;;;0.10;0.00;;;26.70;99.90;;;;;;5029107;28;20492;-83
2022/08/03 08:59:58;;;;;;;0.10;0.00;;;26.70;99.90;;;;;;5014467;28;20503;-89
2022/08/03 09:02:24;;;;;;;0.10;0.00;;;27.00;99.90;;;;;;5019773;28;20491;-88
2022/08/03 09:04:50;;;;;;;0.10;0.00;;;27.00;99.90;;;;;;5014392;28;20442;-93
2022/08/03 09:07:16;;;;;;;0.10;0.00;;;27.00;99.90;;;;;;5023073;28;20563;-94
2022/08/03 09:09:42;;;;;;;0.10;0.00;;;27.00;99.90;;;;;;5025364;28;20270;-91
2022/08/03 09:12:08;;;;;;;0.10;0.00;;;26.90;99.90;;;;;;5024728;28;20865;-92
2022/08/03 09:14:34;;;;;;;0.10;0.00;;;26.80;99.90;;;;;;5021646;28;20188;-93
2022/08/03 09:17:02;;;;;;;0.10;0.00;;;27.10;99.90;;;;;;5040265;28;20559;-94
2022/08/03 09:19:28;;;;;;;0.10;0.00;;;27.00;99.90;;;;;;5029017;28;20181;-90
2022/08/03 09:22:15;;;;;;;0.10;0.00;;;27.10;99.90;;;;;;5015204;28;20447;-92
2022/08/03 09:24:55;;;;;;;0.10;0.00;;;27.10;99.90;;;;;;5023592;28;20449;-96
2022/08/03 09:27:20;;;;;;;0.10;0.00;;;26.90;99.90;;;;;;5007613;28;20463;-85
2022/08/03 09:29:50;;;;;;;0.10;0.00;;;27.10;99.90;;;;;;5027324;28;20442;-87
2022/08/03 09:32:22;;;;;;;0.10;0.00;;;27.40;99.90;;;;;;5017177;28;20183;-89
2022/08/03 09:34:49;;;;;;;0.10;0.00;;;27.20;99.90;;;;;;5016516;28;21003;-85
2022/08/03 09:37:18;;;;;;;0.10;0.00;;;27.40;99.90;;;;;;5024534;28;20493;-92
2022/08/03 09:39:44;;;;;;;0.10;0.00;;;27.40;99.90;;;;;;5051435;28;20429;-85
2022/08/03 09:42:18;;;;;;;0.10;0.00;;;27.40;99.90;;;;;;5024659;28;20447;-86
2022/08/03 09:44:46;;;;;;;0.10;0.00;;;27.60;99.90;;;;;;5025779;28;20479;-85
2022/08/03 09:47:32;;;;;;;0.10;0.00;;;27.70;99.90;;;;;;5017353;28;20446;-85
2022/08/03 09:50:00;;;;;;;0.10;0.00;;;27.80;99.90;;;;;;5022155;28;20438;-87
2022/08/03 09:52:35;;;;;;;0.10;0.00;;;27.90;99.90;;;;;;5016601;28;20449;-85
2022/08/03 09:55:11;;;;;;;0.10;0.00;;;28.10;99.90;;;;;;5014845;28;20445;-87
2022/08/03 09:57:39;;;;;;;0.10;0.00;;;28.50;99.90;;;;;;5017719;28;20478;-86
2022/08/03 10:00:11;;;;;;;0.10;0.00;;;28.70;99.90;;;;;;5033419;28;20964;-88
2022/08/03 10:02:37;;;;;;;0.10;0.00;;;28.90;99.90;;;;;;5028475;28;20448;-90
2022/08/03 10:05:03;;;;;;;0.10;0.00;;;29.10;99.90;;;;;;5045994;28;20832;-90
2022/08/03 10:07:29;;;;;;;0.10;0.00;;;29.30;99.90;;;;;;5011142;28;20482;-88
2022/08/03 10:09:57;;;;;;;0.10;0.00;;;29.10;99.90;;;;;;5020771;28;20436;-87
2022/08/03 10:12:23;;;;;;;0.10;0.00;;;28.60;99.90;;;;;;5020016;28;20183;-86
2022/08/03 10:14:51;;;;;;;0.10;0.00;;;28.90;99.90;;;;;;5022254;28;20960;-84
2022/08/03 10:17:16;;;;;;;0.10;0.00;;;29.30;99.90;;;;;;5028263;28;20470;-85
2022/08/03 10:19:42;;;;;;;0.10;0.00;;;29.60;99.90;;;;;;5019915;28;20449;-87
2022/08/03 10:22:16;;;;;;;0.10;0.00;;;29.60;99.90;;;;;;5020430;28;20245;-88
2022/08/03 10:24:55;;;;;;;0.10;0.00;;;29.40;99.90;;;;;;5016547;28;20184;-84
2022/08/03 10:27:22;;;;;;;0.10;0.00;;;29.10;99.90;;;;;;5017732;28;20441;-86
2022/08/03 10:29:52;;;;;;;0.10;0.00;;;29.50;99.90;;;;;;5023059;28;20434;-87
2022/08/03 10:32:26;;;;;;;0.10;0.00;;;29.90;99.90;;;;;;5014251;28;21024;-88
2022/08/03 10:34:57;;;;;;;0.10;0.00;;;29.90;99.90;;;;;;5012841;28;20447;-87
2022/08/03 10:37:29;;;;;;;0.10;0.00;;;30.20;99.90;;;;;;5027394;28;20489;-88
2022/08/03 10:39:57;;;;;;;0.10;0.00;;;30.40;99.90;;;;;;5020195;28;20418;-88
2022/08/03 10:42:25;;;;;;;0.10;0.00;;;30.40;99.90;;;;;;5023202;28;20439;-87
2022/08/03 10:45:18;;;;;;;0.10;0.00;;;30.80;99.90;;;;;;5029435;28;20444;-86
2022/08/03 10:47:45;;;;;;;0.10;0.00;;;31.00;99.90;;;;;;5018743;28;20450;-87
2022/08/03 10:50:11;;;;;;;0.10;0.00;;;30.60;99.90;;;;;;5040475;28;20486;-88
2022/08/03 10:52:52;;;;;;;0.10;0.00;;;30.60;99.90;;;;;;5031280;28;20807;-83
2022/08/03 10:58:37;;;;;;;0.10;0.00;;;31.10;99.90;;;;;;5021168;28;20460;-84
2022/08/03 11:01:05;;;;;;;0.10;0.00;;;31.20;99.90;;;;;;5014132;28;20442;-86
2022/08/03 11:03:31;;;;;;;0.10;0.00;;;31.10;99.90;;;;;;5022405;28;20441;-86
2022/08/03 11:06:24;;;;;;;0.10;0.00;;;31.30;99.90;;;;;;5023886;28;20501;-83
2022/08/03 11:09:17;;;;;;;0.10;0.00;;;30.90;99.90;;;;;;5013712;28;20809;-85
2022/08/03 11:11:44;;;;;;;0.10;0.00;;;31.40;99.90;;;;;;5008525;28;20445;-84
2022/08/03 11:14:16;;;;;;;0.10;0.10;;;31.80;99.90;;;;;;5019508;28;20465;-87
2022/08/03 11:17:04;;;;;;;0.10;0.00;;;31.90;99.90;;;;;;5044909;28;20472;-84
2022/08/03 11:19:44;;;;;;;0.10;0.00;;;32.50;99.90;;;;;;5034035;28;20421;-87
2022/08/03 11:22:10;;;;;;;0.10;0.00;;;31.90;99.90;;;;;;5013915;28;20438;-86
2022/08/03 11:24:35;;;;;;;0.10;0.00;;;31.90;99.90;;;;;;5015440;28;20964;-81
2022/08/03 11:27:26;;;;;;;0.10;0.00;;;31.50;99.90;;;;;;5014677;28;20196;-84
2022/08/03 11:29:58;;;;;;;0.10;0.00;;;31.50;99.90;;;;;;5018848;28;20216;-85
2022/08/03 11:32:42;;;;;;;0.10;0.00;;;32.00;99.90;;;;;;5015995;28;20542;-83
2022/08/03 11:35:13;;;;;;;0.10;0.00;;;31.90;99.90;;;;;;5017373;28;20443;-84
2022/08/03 11:37:57;;;;;;;0.10;0.00;;;31.80;99.90;;;;;;5021135;28;20497;-84
2022/08/03 11:40:33;;;;;;;0.10;0.00;;;32.60;99.90;;;;;;5012739;28;20461;-84
2022/08/03 11:42:58;;;;;;;0.10;0.00;;;32.40;99.90;;;;;;5023267;28;20445;-86
2022/08/03 11:45:24;;;;;;;0.10;0.00;;;32.60;99.90;;;;;;5018093;28;20442;-85
2022/08/03 11:47:53;;;;;;;0.10;0.00;;;32.60;99.90;;;;;;5039721;28;20192;-83
2022/08/03 11:50:19;;;;;;;0.10;0.00;;;32.90;99.90;;;;;;5015918;28;20183;-85
2022/08/03 11:52:45;;;;;;;0.10;0.00;;;32.20;99.90;;;;;;5034060;28;20488;-83
2022/08/03 11:55:13;;;;;;;0.10;0.00;;;32.00;99.90;;;;;;5027986;28;20783;-86
2022/08/03 11:57:39;;;;;;;0.10;0.00;;;32.30;99.90;;;;;;5017189;28;20725;-86
2022/08/03 12:00:22;;;;;;;0.10;0.00;;;32.90;99.90;;;;;;5014925;28;20455;-87
2022/08/03 12:03:15;;;;;;;0.10;0.00;;;33.70;99.90;;;;;;5011318;28;20194;-85
2022/08/03 12:05:52;;;;;;;0.10;0.00;;;32.50;99.90;;;;;;5007798;28;20466;-85
2022/08/03 12:08:28;;;;;;;0.10;0.00;;;32.10;99.90;;;;;;5012225;28;20509;-84
2022/08/03 12:10:54;;;;;;;0.10;0.00;;;31.40;99.90;;;;;;5021993;28;20442;-86
2022/08/03 12:13:22;;;;;;;0.10;0.00;;;31.30;99.90;;;;;;5006336;28;20447;-84
2022/08/03 12:15:52;;;;;;;0.10;0.00;;;31.00;99.90;;;;;;5024280;28;20465;-83
2022/08/03 12:18:19;;;;;;;0.10;0.00;;;31.50;99.90;;;;;;5002886;28;20450;-82
2022/08/03 12:20:45;;;;;;;0.10;0.00;;;31.30;99.90;;;;;;5013995;28;20492;-84
2022/08/03 12:23:12;;;;;;;0.10;0.00;;;31.30;99.90;;;;;;5021045;28;20456;-82
2022/08/03 12:25:39;;;;;;;0.10;0.00;;;32.00;99.90;;;;;;5000451;28;20450;-82
2022/08/03 12:28:21;;;;;;;0.10;0.00;;;32.20;99.90;;;;;;5009838;28;20996;-83
2022/08/03 12:30:50;;;;;;;0.10;0.00;;;33.80;99.90;;;;;;5023157;28;20499;-80
2022/08/03 12:33:19;;;;;;;0.10;0.00;;;34.10;99.90;;;;;;5017967;28;21279;-80
2022/08/03 12:35:46;;;;;;;0.10;0.10;;;34.40;99.90;;;;;;5005761;28;20433;-78
2022/08/03 12:38:12;;;;;;;0.10;0.00;;;34.60;99.90;;;;;;5002014;28;20538;-78
2022/08/03 12:40:37;;;;;;;0.10;0.00;;;34.90;99.90;;;;;;5012746;28;20659;-77
2022/08/03 12:43:11;;;;;;;0.10;0.00;;;34.50;99.90;;;;;;5027651;28;20222;-78
2022/08/03 12:45:36;;;;;;;0.10;0.00;;;34.10;99.90;;;;;;5024869;28;20183;-77
2022/08/03 12:48:06;;;;;;;0.10;0.00;;;34.40;99.90;;;;;;5016400;28;21016;-79
2022/08/03 12:50:35;;;;;;;0.10;0.00;;;34.70;99.90;;;;;;4997360;28;20179;-80
2022/08/03 12:53:03;;;;;;;0.10;0.00;;;34.50;99.90;;;;;;5013203;28;20430;-78
2022/08/03 12:55:33;;;;;;;0.10;0.00;;;34.80;99.90;;;;;;5017181;28;20443;-80
2022/08/03 12:58:03;;;;;;;0.10;0.00;;;34.80;99.90;;;;;;4999914;28;20483;-79
2022/08/03 13:00:29;;;;;;;0.10;0.00;;;34.50;99.90;;;;;;5027094;28;20437;-80
2022/08/03 13:03:06;;;;;;;0.10;0.00;;;33.90;99.90;;;;;;5008690;28;20443;-78
2022/08/03 13:05:41;;;;;;;0.10;0.00;;;33.10;99.90;;;;;;5011606;28;20458;-78